sensor_id;sensor_type;location;lat;lon;timestamp;pressure;altitude;pressure_sealevel;temperature;humidity
12757;BME280;31601;48.042;12.240;2022-09-02T00:00:52;96283.41;;;15.21;61.93
12757;BME280;31601;48.042;12.240;2022-09-02T00:03:20;96287.88;;;15.21;61.98
12757;BME280;31601;48.042;12.240;2022-09-02T00:05:46;96281.84;;;15.14;62.34
12757;BME280;31601;48.042;12.240;2022-09-02T00:08:13;96281.00;;;15.13;62.50
12757;BME280;31601;48.042;12.240;2022-09-02T00:10:43;96281.03;;;15.07;62.62
12757;BME280;31601;48.042;12.240;2022-09-02T00:13:14;96268.88;;;14.99;62.44
12757;BME280;31601;48.042;12.240;2022-09-02T00:15:41;96282.16;;;14.85;62.75
12757;BME280;31601;48.042;12.240;2022-09-02T00:18:08;96282.56;;;14.82;62.87
12757;BME280;31601;48.042;12.240;2022-09-02T00:20:39;96282.38;;;14.77;63.10
12757;BME280;31601;48.042;12.240;2022-09-02T00:23:05;96266.16;;;14.74;63.00
12757;BME280;31601;48.042;12.240;2022-09-02T00:25:32;96263.31;;;14.75;63.21
12757;BME280;31601;48.042;12.240;2022-09-02T00:27:59;96271.66;;;14.72;62.97
12757;BME280;31601;48.042;12.240;2022-09-02T00:33:48;96278.19;;;14.63;63.38
12757;BME280;31601;48.042;12.240;2022-09-02T00:36:16;96271.06;;;14.57;63.61
12757;BME280;31601;48.042;12.240;2022-09-02T00:38:42;96271.88;;;14.50;64.22
12757;BME280;31601;48.042;12.240;2022-09-02T00:41:10;96269.88;;;14.46;64.49
12757;BME280;31601;48.042;12.240;2022-09-02T00:43:42;96271.47;;;14.47;64.77
12757;BME280;31601;48.042;12.240;2022-09-02T00:46:10;96273.91;;;14.48;64.66
12757;BME280;31601;48.042;12.240;2022-09-02T00:48:39;96275.16;;;14.46;64.74
12757;BME280;31601;48.042;12.240;2022-09-02T00:51:08;96264.19;;;14.36;64.63
12757;BME280;31601;48.042;12.240;2022-09-02T00:53:38;96265.81;;;14.30;65.11
12757;BME280;31601;48.042;12.240;2022-09-02T00:59:24;96265.44;;;14.26;65.18
12757;BME280;31601;48.042;12.240;2022-09-02T01:01:52;96258.31;;;14.27;65.06
12757;BME280;31601;48.042;12.240;2022-09-02T01:04:19;96263.22;;;14.17;65.32
12757;BME280;31601;48.042;12.240;2022-09-02T01:06:47;96260.19;;;14.20;65.11
12757;BME280;31601;48.042;12.240;2022-09-02T01:09:15;96259.38;;;14.12;65.14
12757;BME280;31601;48.042;12.240;2022-09-02T01:12:16;96258.16;;;14.08;65.53
12757;BME280;31601;48.042;12.240;2022-09-02T01:14:42;96267.47;;;14.18;64.98
12757;BME280;31601;48.042;12.240;2022-09-02T01:17:09;96262.19;;;14.18;64.96
12757;BME280;31601;48.042;12.240;2022-09-02T01:19:39;96260.59;;;14.17;64.84
12757;BME280;31601;48.042;12.240;2022-09-02T01:22:16;96267.69;;;13.96;65.58
12757;BME280;31601;48.042;12.240;2022-09-02T01:24:43;96262.84;;;13.93;65.76
12757;BME280;31601;48.042;12.240;2022-09-02T01:27:15;96257.59;;;13.79;65.74
12757;BME280;31601;48.042;12.240;2022-09-02T01:29:42;96263.47;;;13.75;66.19
12757;BME280;31601;48.042;12.240;2022-09-02T01:32:09;96256.16;;;13.64;66.37
12757;BME280;31601;48.042;12.240;2022-09-02T01:34:35;96257.78;;;13.78;65.99
12757;BME280;31601;48.042;12.240;2022-09-02T01:37:02;96252.50;;;13.71;65.93
12757;BME280;31601;48.042;12.240;2022-09-02T01:39:30;96257.16;;;13.76;65.71
12757;BME280;31601;48.042;12.240;2022-09-02T01:41:56;96254.50;;;13.56;66.04
12757;BME280;31601;48.042;12.240;2022-09-02T01:44:22;96258.59;;;13.52;66.15
12757;BME280;31601;48.042;12.240;2022-09-02T01:46:51;96252.50;;;13.58;66.05
12757;BME280;31601;48.042;12.240;2022-09-02T01:49:18;96247.25;;;13.58;65.56
12757;BME280;31601;48.042;12.240;2022-09-02T01:51:45;96248.84;;;13.59;65.95
12757;BME280;31601;48.042;12.240;2022-09-02T01:54:11;96247.25;;;13.58;65.73
12757;BME280;31601;48.042;12.240;2022-09-02T01:56:39;96242.75;;;13.58;65.92
12757;BME280;31601;48.042;12.240;2022-09-02T01:59:12;96235.47;;;13.60;65.77
12757;BME280;31601;48.042;12.240;2022-09-02T02:01:42;96241.97;;;13.58;65.74
12757;BME280;31601;48.042;12.240;2022-09-02T02:04:08;96241.97;;;13.58;65.84
12757;BME280;31601;48.042;12.240;2022-09-02T02:06:38;96243.38;;;13.54;66.02
12757;BME280;31601;48.042;12.240;2022-09-02T02:09:05;96235.44;;;13.40;66.77
12757;BME280;31601;48.042;12.240;2022-09-02T02:11:31;96234.84;;;13.38;66.91
12757;BME280;31601;48.042;12.240;2022-09-02T02:13:59;96239.50;;;13.36;66.91
12757;BME280;31601;48.042;12.240;2022-09-02T02:16:25;96240.50;;;13.35;67.19
12757;BME280;31601;48.042;12.240;2022-09-02T02:18:51;96231.59;;;13.36;67.26
12757;BME280;31601;48.042;12.240;2022-09-02T02:21:18;96230.34;;;13.32;67.46
12757;BME280;31601;48.042;12.240;2022-09-02T02:23:44;96230.97;;;13.34;67.63
12757;BME280;31601;48.042;12.240;2022-09-02T02:26:11;96223.69;;;13.36;67.52
12757;BME280;31601;48.042;12.240;2022-09-02T02:28:37;96232.81;;;13.34;67.31
12757;BME280;31601;48.042;12.240;2022-09-02T02:31:05;96228.91;;;13.30;67.33
12757;BME280;31601;48.042;12.240;2022-09-02T02:33:32;96231.34;;;13.31;68.69
12757;BME280;31601;48.042;12.240;2022-09-02T02:35:59;96223.09;;;13.48;68.32
12757;BME280;31601;48.042;12.240;2022-09-02T02:38:26;96219.47;;;13.49;68.47
12757;BME280;31601;48.042;12.240;2022-09-02T02:40:53;96226.31;;;13.50;68.54
12757;BME280;31601;48.042;12.240;2022-09-02T02:43:20;96227.16;;;13.50;69.15
12757;BME280;31601;48.042;12.240;2022-09-02T02:45:47;96225.50;;;13.36;69.92
12757;BME280;31601;48.042;12.240;2022-09-02T02:48:15;96231.00;;;13.41;70.24
12757;BME280;31601;48.042;12.240;2022-09-02T02:50:41;96225.53;;;13.69;69.63
12757;BME280;31601;48.042;12.240;2022-09-02T02:53:07;96225.94;;;13.66;69.49
12757;BME280;31601;48.042;12.240;2022-09-02T02:55:37;96228.56;;;13.66;69.77
12757;BME280;31601;48.042;12.240;2022-09-02T02:58:04;96226.34;;;13.63;69.32
12757;BME280;31601;48.042;12.240;2022-09-02T03:00:32;96220.47;;;13.81;68.98
12757;BME280;31601;48.042;12.240;2022-09-02T03:03:00;96217.22;;;13.72;69.19
12757;BME280;31601;48.042;12.240;2022-09-02T03:05:29;96215.19;;;13.74;69.36
12757;BME280;31601;48.042;12.240;2022-09-02T03:07:56;96216.78;;;13.82;68.90
12757;BME280;31601;48.042;12.240;2022-09-02T03:10:23;96219.44;;;13.82;68.91
12757;BME280;31601;48.042;12.240;2022-09-02T03:12:51;96218.81;;;13.93;68.39
12757;BME280;31601;48.042;12.240;2022-09-02T03:15:19;96215.97;;;13.88;68.38
12757;BME280;31601;48.042;12.240;2022-09-02T03:17:46;96218.41;;;13.90;68.39
12757;BME280;31601;48.042;12.240;2022-09-02T03:20:15;96218.00;;;13.93;68.21
12757;BME280;31601;48.042;12.240;2022-09-02T03:22:43;96212.50;;;13.94;68.11
12757;BME280;31601;48.042;12.240;2022-09-02T03:25:11;96216.19;;;13.87;68.36
12757;BME280;31601;48.042;12.240;2022-09-02T03:27:39;96215.16;;;13.88;68.16
12757;BME280;31601;48.042;12.240;2022-09-02T03:30:09;96211.50;;;13.82;68.11
12757;BME280;31601;48.042;12.240;2022-09-02T03:32:36;96209.69;;;13.76;68.67
12757;BME280;31601;48.042;12.240;2022-09-02T03:35:05;96214.97;;;13.76;68.74
12757;BME280;31601;48.042;12.240;2022-09-02T03:37:32;96216.41;;;13.78;68.71
12757;BME280;31601;48.042;12.240;2022-09-02T03:40:02;96208.91;;;13.75;68.67
12757;BME280;31601;48.042;12.240;2022-09-02T03:42:29;96207.88;;;13.83;68.31
12757;BME280;31601;48.042;12.240;2022-09-02T03:44:55;96205.03;;;13.71;68.72
12757;BME280;31601;48.042;12.240;2022-09-02T03:47:21;96196.53;;;13.63;68.65
12757;BME280;31601;48.042;12.240;2022-09-02T03:49:48;96201.00;;;13.69;68.74
12757;BME280;31601;48.042;12.240;2022-09-02T03:52:14;96199.16;;;13.69;68.71
12757;BME280;31601;48.042;12.240;2022-09-02T03:54:41;96201.81;;;13.69;68.54
12757;BME280;31601;48.042;12.240;2022-09-02T03:57:09;96203.03;;;13.60;68.94
12757;BME280;31601;48.042;12.240;2022-09-02T03:59:35;96198.56;;;13.54;69.18
12757;BME280;31601;48.042;12.240;2022-09-02T04:02:02;96203.03;;;13.53;69.11
12757;BME280;31601;48.042;12.240;2022-09-02T04:04:28;96202.84;;;13.55;69.33
12757;BME280;31601;48.042;12.240;2022-09-02T04:06:55;96201.41;;;13.52;69.31
12757;BME280;31601;48.042;12.240;2022-09-02T04:09:22;96196.34;;;13.51;69.42
12757;BME280;31601;48.042;12.240;2022-09-02T04:11:48;96200.19;;;13.61;68.95
12757;BME280;31601;48.042;12.240;2022-09-02T04:14:16;96201.78;;;13.56;69.47
12757;BME280;31601;48.042;12.240;2022-09-02T04:16:42;96199.59;;;13.39;70.33
12757;BME280;31601;48.042;12.240;2022-09-02T04:19:09;96194.50;;;13.45;69.88
12757;BME280;31601;48.042;12.240;2022-09-02T04:21:38;96199.19;;;13.42;69.83
12757;BME280;31601;48.042;12.240;2022-09-02T04:24:06;96197.97;;;13.52;69.62
12757;BME280;31601;48.042;12.240;2022-09-02T04:26:34;96200.97;;;13.62;69.26
12757;BME280;31601;48.042;12.240;2022-09-02T04:29:02;96194.50;;;13.51;69.38
12757;BME280;31601;48.042;12.240;2022-09-02T04:31:31;96203.63;;;13.55;69.32
12757;BME280;31601;48.042;12.240;2022-09-02T04:33:58;96200.19;;;13.55;69.35
12757;BME280;31601;48.042;12.240;2022-09-02T04:36:26;96206.06;;;13.50;69.40
12757;BME280;31601;48.042;12.240;2022-09-02T04:38:52;96200.00;;;13.56;69.40
12757;BME280;31601;48.042;12.240;2022-09-02T04:41:21;96202.81;;;13.48;69.75
12757;BME280;31601;48.042;12.240;2022-09-02T04:43:49;96197.13;;;13.51;69.63
12757;BME280;31601;48.042;12.240;2022-09-02T04:46:16;96202.22;;;13.59;69.32
12757;BME280;31601;48.042;12.240;2022-09-02T04:48:45;96200.59;;;13.52;69.68
12757;BME280;31601;48.042;12.240;2022-09-02T04:51:14;96202.63;;;13.56;69.32
12757;BME280;31601;48.042;12.240;2022-09-02T04:53:42;96200.78;;;13.57;69.22
12757;BME280;31601;48.042;12.240;2022-09-02T04:56:11;96212.56;;;13.61;69.07
12757;BME280;31601;48.042;12.240;2022-09-02T04:58:39;96212.56;;;13.68;68.68
12757;BME280;31601;48.042;12.240;2022-09-02T05:01:08;96204.66;;;13.48;69.29
12757;BME280;31601;48.042;12.240;2022-09-02T05:03:34;96206.06;;;13.57;69.06
12757;BME280;31601;48.042;12.240;2022-09-02T05:06:05;96205.25;;;13.56;69.06
12757;BME280;31601;48.042;12.240;2022-09-02T05:08:32;96204.44;;;13.56;68.84
12757;BME280;31601;48.042;12.240;2022-09-02T05:11:02;96202.63;;;13.63;68.83
12757;BME280;31601;48.042;12.240;2022-09-02T05:13:29;96200.97;;;13.62;69.01
12757;BME280;31601;48.042;12.240;2022-09-02T05:15:56;96210.72;;;13.48;69.24
12757;BME280;31601;48.042;12.240;2022-09-02T05:18:22;96204.22;;;13.57;69.45
12757;BME280;31601;48.042;12.240;2022-09-02T05:20:49;96210.53;;;13.63;69.47
12757;BME280;31601;48.042;12.240;2022-09-02T05:23:17;96207.28;;;13.68;69.46
12757;BME280;31601;48.042;12.240;2022-09-02T05:25:43;96208.09;;;13.82;69.18
12757;BME280;31601;48.042;12.240;2022-09-02T05:28:10;96201.78;;;13.76;69.53
12757;BME280;31601;48.042;12.240;2022-09-02T05:30:37;96206.25;;;13.89;69.53
12757;BME280;31601;48.042;12.240;2022-09-02T05:33:04;96206.25;;;13.89;69.59
12757;BME280;31601;48.042;12.240;2022-09-02T05:35:31;96204.63;;;14.01;69.06
12757;BME280;31601;48.042;12.240;2022-09-02T05:37:58;96206.22;;;13.95;69.31
12757;BME280;31601;48.042;12.240;2022-09-02T05:40:26;96210.88;;;14.13;69.06
12757;BME280;31601;48.042;12.240;2022-09-02T05:42:52;96206.63;;;13.99;69.83
12757;BME280;31601;48.042;12.240;2022-09-02T05:45:19;96206.25;;;13.75;70.19
12757;BME280;31601;48.042;12.240;2022-09-02T05:47:47;96211.50;;;14.02;69.81
12757;BME280;31601;48.042;12.240;2022-09-02T05:50:14;96206.00;;;14.10;69.63
12757;BME280;31601;48.042;12.240;2022-09-02T05:52:40;96209.03;;;14.14;69.58
12757;BME280;31601;48.042;12.240;2022-09-02T05:55:07;96212.28;;;14.23;69.59
12757;BME280;31601;48.042;12.240;2022-09-02T05:57:35;96209.28;;;14.06;70.19
12757;BME280;31601;48.042;12.240;2022-09-02T06:00:04;96208.19;;;14.27;69.63
12757;BME280;31601;48.042;12.240;2022-09-02T06:02:31;96205.38;;;14.22;69.51
12757;BME280;31601;48.042;12.240;2022-09-02T06:04:58;96204.50;;;14.41;69.53
12757;BME280;31601;48.042;12.240;2022-09-02T06:07:24;96206.50;;;14.53;69.14
12757;BME280;31601;48.042;12.240;2022-09-02T06:09:51;96195.50;;;14.56;69.13
12757;BME280;31601;48.042;12.240;2022-09-02T06:12:18;96194.59;;;14.82;68.86
12757;BME280;31601;48.042;12.240;2022-09-02T06:14:47;96196.66;;;14.80;68.80
12757;BME280;31601;48.042;12.240;2022-09-02T06:17:13;96197.63;;;14.85;68.48
12757;BME280;31601;48.042;12.240;2022-09-02T06:19:40;96198.25;;;14.88;68.21
12757;BME280;31601;48.042;12.240;2022-09-02T06:22:07;96196.13;;;15.03;67.70
12757;BME280;31601;48.042;12.240;2022-09-02T06:24:33;96193.34;;;15.23;67.43
12757;BME280;31601;48.042;12.240;2022-09-02T06:27:00;96196.78;;;15.24;67.29
12757;BME280;31601;48.042;12.240;2022-09-02T06:29:26;96194.59;;;15.46;66.38
12757;BME280;31601;48.042;12.240;2022-09-02T06:31:54;96191.50;;;15.81;65.79
12757;BME280;31601;48.042;12.240;2022-09-02T06:34:22;96194.75;;;15.76;65.53
12757;BME280;31601;48.042;12.240;2022-09-02T06:36:51;96195.84;;;15.93;64.77
12757;BME280;31601;48.042;12.240;2022-09-02T06:39:19;96196.81;;;16.18;64.44
12757;BME280;31601;48.042;12.240;2022-09-02T06:41:47;96191.91;;;16.40;63.60
12757;BME280;31601;48.042;12.240;2022-09-02T06:44:14;96181.28;;;16.58;63.54
12757;BME280;31601;48.042;12.240;2022-09-02T06:46:43;96191.31;;;16.56;63.22
12757;BME280;31601;48.042;12.240;2022-09-02T06:49:12;96191.75;;;16.83;62.48
12757;BME280;31601;48.042;12.240;2022-09-02T06:51:41;96184.84;;;16.82;61.31
12757;BME280;31601;48.042;12.240;2022-09-02T06:54:11;96187.31;;;17.26;60.88
12757;BME280;31601;48.042;12.240;2022-09-02T06:56:38;96193.91;;;16.93;60.67
12757;BME280;31601;48.042;12.240;2022-09-02T06:59:05;96191.81;;;17.26;60.35
12757;BME280;31601;48.042;12.240;2022-09-02T07:01:33;96195.50;;;17.25;59.97
12757;BME280;31601;48.042;12.240;2022-09-02T07:04:01;96189.06;;;17.32;59.44
12757;BME280;31601;48.042;12.240;2022-09-02T07:06:49;96189.34;;;17.66;58.92
12757;BME280;31601;48.042;12.240;2022-09-02T07:09:18;96193.34;;;17.45;57.98
12757;BME280;31601;48.042;12.240;2022-09-02T07:11:45;96191.34;;;17.95;57.40
12757;BME280;31601;48.042;12.240;2022-09-02T07:14:12;96196.19;;;18.21;57.52
12757;BME280;31601;48.042;12.240;2022-09-02T07:16:42;96188.78;;;18.35;56.64
12757;BME280;31601;48.042;12.240;2022-09-02T07:19:10;96193.94;;;18.42;56.21
12757;BME280;31601;48.042;12.240;2022-09-02T07:21:37;96190.41;;;18.77;56.15
12757;BME280;31601;48.042;12.240;2022-09-02T07:24:06;96193.97;;;18.30;55.07
12757;BME280;31601;48.042;12.240;2022-09-02T07:26:33;96187.97;;;17.87;55.08
12757;BME280;31601;48.042;12.240;2022-09-02T07:28:59;96191.41;;;17.76;56.05
12757;BME280;31601;48.042;12.240;2022-09-02T07:31:26;96188.19;;;17.74;55.53
12757;BME280;31601;48.042;12.240;2022-09-02T07:33:53;96183.13;;;17.72;55.57
12757;BME280;31601;48.042;12.240;2022-09-02T07:36:22;96183.94;;;17.85;55.92
12757;BME280;31601;48.042;12.240;2022-09-02T07:38:49;96189.16;;;17.92;55.90
12757;BME280;31601;48.042;12.240;2022-09-02T07:41:17;96189.97;;;18.56;55.31
12757;BME280;31601;48.042;12.240;2022-09-02T07:43:44;96181.81;;;18.87;55.00
12757;BME280;31601;48.042;12.240;2022-09-02T07:46:11;96187.75;;;19.06;53.56
12757;BME280;31601;48.042;12.240;2022-09-02T07:48:37;96176.59;;;19.38;52.98
12757;BME280;31601;48.042;12.240;2022-09-02T07:51:04;96176.38;;;18.82;52.69
12757;BME280;31601;48.042;12.240;2022-09-02T07:53:32;96184.75;;;19.31;52.88
12757;BME280;31601;48.042;12.240;2022-09-02T07:55:59;96179.84;;;18.94;52.59
12757;BME280;31601;48.042;12.240;2022-09-02T07:58:27;96188.19;;;18.86;52.16
12757;BME280;31601;48.042;12.240;2022-09-02T08:00:54;96186.03;;;18.71;51.87
12757;BME280;31601;48.042;12.240;2022-09-02T08:03:22;96188.72;;;18.59;50.93
12757;BME280;31601;48.042;12.240;2022-09-02T08:05:49;96184.84;;;19.07;51.80
12757;BME280;31601;48.042;12.240;2022-09-02T08:08:17;96178.72;;;19.07;52.07
12757;BME280;31601;48.042;12.240;2022-09-02T08:10:45;96183.38;;;19.62;51.36
12757;BME280;31601;48.042;12.240;2022-09-02T08:13:12;96176.53;;;19.83;50.43
12757;BME280;31601;48.042;12.240;2022-09-02T08:15:40;96179.13;;;19.78;49.37
12757;BME280;31601;48.042;12.240;2022-09-02T08:18:07;96174.66;;;19.33;49.06
12757;BME280;31601;48.042;12.240;2022-09-02T08:20:33;96174.44;;;19.52;49.14
12757;BME280;31601;48.042;12.240;2022-09-02T08:23:02;96173.38;;;19.53;49.39
12757;BME280;31601;48.042;12.240;2022-09-02T08:25:28;96174.22;;;20.09;48.86
12757;BME280;31601;48.042;12.240;2022-09-02T08:27:55;96171.72;;;20.42;47.48
12757;BME280;31601;48.042;12.240;2022-09-02T08:30:22;96173.63;;;20.02;46.87
12757;BME280;31601;48.042;12.240;2022-09-02T08:32:49;96172.66;;;19.74;46.76
12757;BME280;31601;48.042;12.240;2022-09-02T08:35:16;96169.28;;;19.79;47.08
12757;BME280;31601;48.042;12.240;2022-09-02T08:37:43;96175.38;;;19.45;46.27
12757;BME280;31601;48.042;12.240;2022-09-02T08:40:13;96168.78;;;19.65;47.21
12757;BME280;31601;48.042;12.240;2022-09-02T08:42:43;96170.47;;;19.71;45.73
12757;BME280;31601;48.042;12.240;2022-09-02T08:45:12;96173.25;;;20.15;45.78
12757;BME280;31601;48.042;12.240;2022-09-02T08:47:41;96159.84;;;19.71;46.12
12757;BME280;31601;48.042;12.240;2022-09-02T08:50:12;96158.63;;;19.96;46.15
12757;BME280;31601;48.042;12.240;2022-09-02T08:52:42;96160.69;;;20.55;45.56
12757;BME280;31601;48.042;12.240;2022-09-02T08:55:17;96168.38;;;20.51;45.13
12757;BME280;31601;48.042;12.240;2022-09-02T08:57:44;96162.03;;;20.13;43.83
12757;BME280;31601;48.042;12.240;2022-09-02T09:00:12;96167.50;;;20.24;45.62
12757;BME280;31601;48.042;12.240;2022-09-02T09:02:48;96158.78;;;20.28;45.09
12757;BME280;31601;48.042;12.240;2022-09-02T09:05:37;96166.69;;;20.23;43.85
12757;BME280;31601;48.042;12.240;2022-09-02T09:08:15;96168.38;;;20.29;40.91
12757;BME280;31601;48.042;12.240;2022-09-02T09:10:52;96164.09;;;20.28;43.86
12757;BME280;31601;48.042;12.240;2022-09-02T09:13:44;96164.22;;;20.16;41.35
12757;BME280;31601;48.042;12.240;2022-09-02T09:16:18;96166.81;;;20.11;41.59
12757;BME280;31601;48.042;12.240;2022-09-02T09:18:51;96156.53;;;20.64;42.02
12757;BME280;31601;48.042;12.240;2022-09-02T09:21:21;96164.59;;;20.25;41.25
12757;BME280;31601;48.042;12.240;2022-09-02T09:23:49;96165.88;;;20.45;40.67
12757;BME280;31601;48.042;12.240;2022-09-02T09:26:21;96145.81;;;20.59;39.84
12757;BME280;31601;48.042;12.240;2022-09-02T09:28:51;96145.97;;;20.97;41.50
12757;BME280;31601;48.042;12.240;2022-09-02T09:31:21;96141.31;;;21.14;40.87
12757;BME280;31601;48.042;12.240;2022-09-02T09:33:59;96143.81;;;21.26;39.30
12757;BME280;31601;48.042;12.240;2022-09-02T09:36:50;96143.50;;;21.22;39.98
12757;BME280;31601;48.042;12.240;2022-09-02T09:39:24;96137.72;;;21.31;40.20
12757;BME280;31601;48.042;12.240;2022-09-02T09:41:52;96134.59;;;20.79;40.27
12757;BME280;31601;48.042;12.240;2022-09-02T09:44:39;96135.25;;;20.91;38.98
12757;BME280;31601;48.042;12.240;2022-09-02T09:47:10;96132.66;;;20.52;39.48
12757;BME280;31601;48.042;12.240;2022-09-02T09:49:39;96140.38;;;20.71;39.65
12757;BME280;31601;48.042;12.240;2022-09-02T09:52:07;96133.84;;;20.62;38.79
12757;BME280;31601;48.042;12.240;2022-09-02T09:54:33;96126.34;;;20.58;38.52
12757;BME280;31601;48.042;12.240;2022-09-02T09:57:15;96124.00;;;20.89;39.03
12757;BME280;31601;48.042;12.240;2022-09-02T09:59:44;96129.53;;;20.78;39.96
12757;BME280;31601;48.042;12.240;2022-09-02T10:02:21;96123.59;;;20.98;38.36
12757;BME280;31601;48.042;12.240;2022-09-02T10:04:49;96125.59;;;21.18;39.73
12757;BME280;31601;48.042;12.240;2022-09-02T10:07:34;96114.34;;;21.10;38.20
12757;BME280;31601;48.042;12.240;2022-09-02T10:10:18;96122.16;;;21.92;38.10
12757;BME280;31601;48.042;12.240;2022-09-02T10:12:47;96125.44;;;22.10;38.50
12757;BME280;31601;48.042;12.240;2022-09-02T10:15:15;96123.88;;;22.19;39.01
12757;BME280;31601;48.042;12.240;2022-09-02T10:17:50;96125.00;;;22.23;37.37
12757;BME280;31601;48.042;12.240;2022-09-02T10:20:28;96118.31;;;21.78;37.77
12757;BME280;31601;48.042;12.240;2022-09-02T10:23:20;96122.63;;;22.32;37.60
12757;BME280;31601;48.042;12.240;2022-09-02T10:25:58;96107.00;;;22.66;38.26
12757;BME280;31601;48.042;12.240;2022-09-02T10:28:39;96115.28;;;22.70;37.39
12757;BME280;31601;48.042;12.240;2022-09-02T10:31:18;96110.72;;;22.60;37.66
12757;BME280;31601;48.042;12.240;2022-09-02T10:33:56;96103.78;;;22.69;37.57
12757;BME280;31601;48.042;12.240;2022-09-02T10:36:33;96103.25;;;22.73;36.40
12757;BME280;31601;48.042;12.240;2022-09-02T10:39:12;96101.69;;;22.97;36.53
12757;BME280;31601;48.042;12.240;2022-09-02T10:41:44;96106.69;;;22.58;36.65
12757;BME280;31601;48.042;12.240;2022-09-02T10:44:24;96108.34;;;22.74;37.48
12757;BME280;31601;48.042;12.240;2022-09-02T10:46:58;96101.16;;;23.05;37.11
12757;BME280;31601;48.042;12.240;2022-09-02T10:49:51;96092.06;;;23.06;35.94
12757;BME280;31601;48.042;12.240;2022-09-02T10:52:38;96090.22;;;23.22;35.44
12757;BME280;31601;48.042;12.240;2022-09-02T10:55:18;96090.44;;;23.05;35.60
12757;BME280;31601;48.042;12.240;2022-09-02T10:57:53;96080.81;;;22.94;34.73
12757;BME280;31601;48.042;12.240;2022-09-02T11:00:21;96083.78;;;23.13;35.69
12757;BME280;31601;48.042;12.240;2022-09-02T11:02:50;96085.66;;;23.18;35.20
12757;BME280;31601;48.042;12.240;2022-09-02T11:05:21;96077.91;;;23.16;35.39
12757;BME280;31601;48.042;12.240;2022-09-02T11:07:53;96083.50;;;23.56;36.60
12757;BME280;31601;48.042;12.240;2022-09-02T11:10:24;96076.59;;;23.19;36.91
12757;BME280;31601;48.042;12.240;2022-09-02T11:12:56;96069.34;;;23.24;38.55
12757;BME280;31601;48.042;12.240;2022-09-02T11:15:32;96063.38;;;23.74;36.16
12757;BME280;31601;48.042;12.240;2022-09-02T11:18:08;96071.13;;;22.67;37.50
12757;BME280;31601;48.042;12.240;2022-09-02T11:20:43;96073.28;;;22.65;37.26
12757;BME280;31601;48.042;12.240;2022-09-02T11:23:16;96067.16;;;22.91;37.24
12757;BME280;31601;48.042;12.240;2022-09-02T11:25:53;96071.09;;;22.52;37.65
12757;BME280;31601;48.042;12.240;2022-09-02T11:28:29;96079.94;;;22.63;37.74
12757;BME280;31601;48.042;12.240;2022-09-02T11:31:02;96074.34;;;22.54;37.81
12757;BME280;31601;48.042;12.240;2022-09-02T11:33:37;96066.34;;;22.75;38.44
12757;BME280;31601;48.042;12.240;2022-09-02T11:36:09;96057.84;;;23.09;38.14
12757;BME280;31601;48.042;12.240;2022-09-02T11:38:39;96060.75;;;23.28;37.58
12757;BME280;31601;48.042;12.240;2022-09-02T11:41:29;96065.53;;;22.84;37.40
12757;BME280;31601;48.042;12.240;2022-09-02T11:44:09;96054.25;;;22.41;37.98
12757;BME280;31601;48.042;12.240;2022-09-02T11:46:48;96063.38;;;22.66;37.50
12757;BME280;31601;48.042;12.240;2022-09-02T11:49:34;96055.66;;;22.95;37.50
12757;BME280;31601;48.042;12.240;2022-09-02T11:52:07;96057.25;;;22.65;37.04
12757;BME280;31601;48.042;12.240;2022-09-02T11:54:46;96063.13;;;22.78;35.96
12757;BME280;31601;48.042;12.240;2022-09-02T11:57:22;96059.09;;;22.60;36.63
12757;BME280;31601;48.042;12.240;2022-09-02T12:00:25;96052.16;;;22.59;37.53
12757;BME280;31601;48.042;12.240;2022-09-02T12:02:58;96057.25;;;22.86;36.60
12757;BME280;31601;48.042;12.240;2022-09-02T12:05:46;96057.78;;;22.83;36.87
12757;BME280;31601;48.042;12.240;2022-09-02T12:11:37;96046.81;;;23.00;37.84
12757;BME280;31601;48.042;12.240;2022-09-02T12:14:09;96047.91;;;22.83;37.70
12757;BME280;31601;48.042;12.240;2022-09-02T12:16:58;96050.03;;;22.81;37.32
12757;BME280;31601;48.042;12.240;2022-09-02T12:19:40;96060.22;;;22.95;38.59
12757;BME280;31601;48.042;12.240;2022-09-02T12:22:31;96047.88;;;22.78;35.90
12757;BME280;31601;48.042;12.240;2022-09-02T12:24:58;96047.63;;;22.80;36.61
12757;BME280;31601;48.042;12.240;2022-09-02T12:27:31;96048.41;;;22.75;36.58
12757;BME280;31601;48.042;12.240;2022-09-02T12:30:05;96050.31;;;22.95;36.69
12757;BME280;31601;48.042;12.240;2022-09-02T12:35:30;96047.31;;;22.45;36.78
12757;BME280;31601;48.042;12.240;2022-09-02T12:38:21;96047.50;;;22.28;37.49
12757;BME280;31601;48.042;12.240;2022-09-02T12:40:53;96042.69;;;22.25;37.57
12757;BME280;31601;48.042;12.240;2022-09-02T12:43:24;96039.91;;;21.99;38.43
12757;BME280;31601;48.042;12.240;2022-09-02T12:46:02;96041.16;;;22.55;38.56
12757;BME280;31601;48.042;12.240;2022-09-02T12:48:38;96038.53;;;23.01;36.84
12757;BME280;31601;48.042;12.240;2022-09-02T12:51:06;96035.59;;;22.82;37.96
12757;BME280;31601;48.042;12.240;2022-09-02T12:53:36;96029.44;;;22.77;37.93
12757;BME280;31601;48.042;12.240;2022-09-02T12:56:05;96033.97;;;22.66;37.08
12757;BME280;31601;48.042;12.240;2022-09-02T12:58:35;96025.44;;;22.89;37.69
12757;BME280;31601;48.042;12.240;2022-09-02T13:01:19;96032.16;;;23.18;38.09
12757;BME280;31601;48.042;12.240;2022-09-02T13:04:16;96025.66;;;23.45;36.24
12757;BME280;31601;48.042;12.240;2022-09-02T13:09:54;96036.94;;;22.80;37.66
12757;BME280;31601;48.042;12.240;2022-09-02T13:12:51;96031.25;;;22.35;37.31
12757;BME280;31601;48.042;12.240;2022-09-02T13:15:34;96018.22;;;22.69;37.23
12757;BME280;31601;48.042;12.240;2022-09-02T13:18:24;96012.28;;;22.52;37.33
12757;BME280;31601;48.042;12.240;2022-09-02T13:21:09;96019.81;;;22.96;37.85
12757;BME280;31601;48.042;12.240;2022-09-02T13:24:04;96016.63;;;22.79;36.67